Time;durP1;ratioP1;P1;durP2;ratioP2;P2;SDS_P1;SDS_P2;PMS_P1;PMS_P2;Temp;Humidity;BMP_temperature;BMP_pressure;BME280_temperature;BME280_humidity;BME280_pressure;Samples;Min_cycle;Max_cycle;Signal;HPM_P1;HPM_P2
2022/09/20 00:01:05;;;;;;;;;;;14.10;99.90;;;;;;5052501;28;19909;-75
2022/09/20 00:03:30;;;;;;;;;;;14.10;99.90;;;;;;5051212;28;20363;-75
2022/09/20 00:05:59;;;;;;;;;;;14.10;99.90;;;;;;5052298;28;19912;-74
2022/09/20 00:08:24;;;;;;;;;;;14.10;99.90;;;;;;5052523;28;19909;-75
2022/09/20 00:10:50;;;;;;;;;;;14.10;99.90;;;;;;5052695;28;19909;-75
2022/09/20 00:13:15;;;;;;;;;;;14.10;99.90;;;;;;5050463;28;19909;-75
2022/09/20 00:15:44;;;;;;;;;;;14.10;99.90;;;;;;5067766;28;20423;-75
2022/09/20 00:18:11;;;;;;;;;;;14.10;99.90;;;;;;5051627;28;19917;-75
2022/09/20 00:20:43;;;;;;;;;;;14.10;99.90;;;;;;5052141;28;20407;-75
2022/09/20 00:23:09;;;;;;;;;;;14.00;99.90;;;;;;5051718;28;19999;-75
2022/09/20 00:25:34;;;;;;;;;;;14.00;99.90;;;;;;5052351;28;19940;-75
2022/09/20 00:28:00;;;;;;;;;;;14.00;99.90;;;;;;5051688;28;19909;-74
2022/09/20 00:30:26;;;;;;;;;;;14.00;99.90;;;;;;5052354;28;20377;-75
2022/09/20 00:32:51;;;;;;;;;;;14.00;99.90;;;;;;5052105;28;19963;-75
2022/09/20 00:35:17;;;;;;;;;;;14.00;99.90;;;;;;5051317;28;20054;-76
2022/09/20 00:37:43;;;;;;;;;;;14.00;99.90;;;;;;5084346;28;19916;-75
2022/09/20 00:40:11;;;;;;;;;;;14.00;99.90;;;;;;5051285;28;20375;-74
2022/09/20 00:42:37;;;;;;;;;;;14.00;99.90;;;;;;5052455;28;20007;-74
2022/09/20 00:45:03;;;;;;;;;;;14.00;99.90;;;;;;5051153;28;19928;-75
2022/09/20 00:47:42;;;;;;;;;;;14.00;99.90;;;;;;5055315;28;19909;-75
2022/09/20 00:50:26;;;;;;;;;;;14.00;99.90;;;;;;5054930;28;19999;-75
2022/09/20 00:53:01;;;;;;;;;;;14.10;99.90;;;;;;5054548;28;19999;-76
2022/09/20 00:55:27;;;;;;;;;;;14.10;99.90;;;;;;5055498;28;19956;-75
2022/09/20 00:57:53;;;;;;;;;;;14.20;99.90;;;;;;5055350;28;19913;-75
2022/09/20 01:00:19;;;;;;;;;;;14.10;99.90;;;;;;5054794;28;20163;-75
2022/09/20 01:02:47;;;;;;;;;;;14.20;99.90;;;;;;5055451;28;20323;-75
2022/09/20 01:05:14;;;;;;;;;;;14.20;99.90;;;;;;5054687;28;19909;-75
2022/09/20 01:07:41;;;;;;;;;;;14.30;99.90;;;;;;5055018;28;20447;-75
2022/09/20 01:10:06;;;;;;;;;;;14.20;99.90;;;;;;5054736;28;20042;-75
2022/09/20 01:12:34;;;;;;;;;;;14.30;99.90;;;;;;5055245;28;19958;-76
2022/09/20 01:15:01;;;;;;;;;;;14.30;99.90;;;;;;5055069;28;19915;-76
2022/09/20 01:17:28;;;;;;;;;;;14.30;99.90;;;;;;5054645;28;20479;-75
2022/09/20 01:20:02;;;;;;;;;;;14.30;99.90;;;;;;5054826;28;19915;-76
2022/09/20 01:22:47;;;;;;;;;;;14.30;99.90;;;;;;5054885;28;19959;-76
2022/09/20 01:25:25;;;;;;;;;;;14.40;99.90;;;;;;5054369;28;19916;-75
2022/09/20 01:27:51;;;;;;;;;;;14.40;99.90;;;;;;5054874;28;19909;-76
2022/09/20 01:30:18;;;;;;;;;;;14.40;99.90;;;;;;5054219;28;19935;-76
2022/09/20 01:32:55;;;;;;;;;;;14.40;99.90;;;;;;5054796;28;19909;-77
2022/09/20 01:35:23;;;;;;;;;;;14.50;99.90;;;;;;5053908;28;19913;-75
2022/09/20 01:38:07;;;;;;;;;;;14.40;99.90;;;;;;5054719;28;19913;-75
2022/09/20 01:40:32;;;;;;;;;;;14.50;99.90;;;;;;5054868;28;19909;-75
2022/09/20 01:43:04;;;;;;;;;;;14.40;99.90;;;;;;5054573;28;19908;-75
2022/09/20 01:45:30;;;;;;;;;;;14.50;99.90;;;;;;5054541;28;19968;-75
2022/09/20 01:47:56;;;;;;;;;;;14.50;99.90;;;;;;5054118;28;19916;-74
2022/09/20 01:50:39;;;;;;;;;;;14.50;99.90;;;;;;5052159;28;19909;-74
2022/09/20 01:53:23;;;;;;;;;;;14.50;99.90;;;;;;5054288;28;19963;-74
2022/09/20 01:55:51;;;;;;;;;;;14.50;99.90;;;;;;5053376;28;19920;-74
2022/09/20 01:58:35;;;;;;;;;;;14.50;99.90;;;;;;5052447;28;19923;-75
2022/09/20 02:01:30;;;;;;;;;;;14.50;99.90;;;;;;5054362;28;20024;-75
2022/09/20 02:04:04;;;;;;;;;;;14.50;99.90;;;;;;5048981;28;19908;-75
2022/09/20 02:06:30;;;;;;;;;;;14.60;99.90;;;;;;5053773;28;19912;-74
2022/09/20 02:08:58;;;;;;;;;;;14.50;99.90;;;;;;5053821;28;20491;-75
2022/09/20 02:11:49;;;;;;;;;;;14.50;99.90;;;;;;5052280;28;19912;-74
2022/09/20 02:14:27;;;;;;;;;;;14.50;99.90;;;;;;5053619;28;19962;-74
2022/09/20 02:16:54;;;;;;;;;;;14.50;99.90;;;;;;5053901;28;19913;-75
2022/09/20 02:19:26;;;;;;;;;;;14.50;99.90;;;;;;5053331;28;19919;-74
2022/09/20 02:22:02;;;;;;;;;;;14.50;99.90;;;;;;5053753;28;19909;-74
2022/09/20 02:24:34;;;;;;;;;;;14.50;99.90;;;;;;5053004;28;20392;-75
2022/09/20 02:27:00;;;;;;;;;;;14.50;99.90;;;;;;5053930;28;19916;-74
2022/09/20 02:29:37;;;;;;;;;;;14.40;99.90;;;;;;5053262;28;19909;-75
2022/09/20 02:32:13;;;;;;;;;;;14.50;99.90;;;;;;5053763;28;19909;-75
2022/09/20 02:34:52;;;;;;;;;;;14.40;99.90;;;;;;5053687;28;19908;-75
2022/09/20 02:37:36;;;;;;;;;;;14.40;99.90;;;;;;5052772;28;19917;-74
2022/09/20 02:40:04;;;;;;;;;;;14.40;99.90;;;;;;5053625;28;20042;-74
2022/09/20 02:42:34;;;;;;;;;;;14.40;99.90;;;;;;5052829;28;20358;-74
2022/09/20 02:45:07;;;;;;;;;;;14.50;99.90;;;;;;5053353;28;19932;-74
2022/09/20 02:47:35;;;;;;;;;;;14.40;99.90;;;;;;5053143;28;20000;-74
2022/09/20 02:50:11;;;;;;;;;;;14.40;99.90;;;;;;5053387;28;19909;-75
2022/09/20 02:52:37;;;;;;;;;;;14.50;99.90;;;;;;5052786;28;20317;-74
2022/09/20 02:55:05;;;;;;;;;;;14.50;99.90;;;;;;5053213;28;19915;-73
2022/09/20 02:57:52;;;;;;;;;;;14.50;99.90;;;;;;5052667;28;19912;-75
2022/09/20 03:00:22;;;;;;;;;;;14.50;99.90;;;;;;5052569;28;19913;-74
2022/09/20 03:03:07;;;;;;;;;;;14.40;99.90;;;;;;5053231;28;19962;-74
2022/09/20 03:05:35;;;;;;;;;;;14.40;99.90;;;;;;5053335;28;19916;-75
2022/09/20 03:08:03;;;;;;;;;;;14.40;99.90;;;;;;5052813;28;20344;-74
2022/09/20 03:10:45;;;;;;;;;;;14.30;99.90;;;;;;5052106;28;20526;-75
2022/09/20 03:13:37;;;;;;;;;;;14.30;99.90;;;;;;5052567;28;19979;-74
2022/09/20 03:16:13;;;;;;;;;;;14.30;99.90;;;;;;5044012;28;19919;-74
2022/09/20 03:19:18;;;;;;;;;;;14.30;99.90;;;;;;5085766;28;19966;-73
2022/09/20 03:22:18;;;;;;;;;;;14.30;99.90;;;;;;5030219;28;20170;-73
2022/09/20 03:24:47;;;;;;;;;;;14.30;99.90;;;;;;5030417;28;19923;-74
2022/09/20 03:27:15;;;;;;;;;;;14.20;99.90;;;;;;5029671;28;19909;-74
2022/09/20 03:29:54;;;;;;;;;;;14.20;99.90;;;;;;5030509;28;19931;-74
2022/09/20 03:32:22;;;;;;;;;;;14.20;99.90;;;;;;5029938;28;19909;-74
2022/09/20 03:35:02;;;;;;;;;;;14.20;99.90;;;;;;5030464;28;19917;-75
2022/09/20 03:37:46;;;;;;;;;;;14.20;99.90;;;;;;5029705;28;19917;-74
2022/09/20 03:40:26;;;;;;;;;;;14.20;99.90;;;;;;5029949;28;20386;-75
2022/09/20 03:42:53;;;;;;;;;;;14.20;99.90;;;;;;5030171;28;19916;-75
2022/09/20 03:45:37;;;;;;;;;;;14.10;99.90;;;;;;5019116;28;20008;-74
2022/09/20 03:48:25;;;;;;;;;;;14.10;99.90;;;;;;5010513;28;19917;-75
2022/09/20 03:50:51;;;;;;;;;;;14.10;99.90;;;;;;5005157;28;20454;-74
2022/09/20 03:53:16;;;;;;;;;;;14.10;99.90;;;;;;5011325;28;19968;-75
2022/09/20 03:55:52;;;;;;;;;;;14.00;99.90;;;;;;5012744;28;19968;-74
2022/09/20 03:58:29;;;;;;;;;;;14.00;99.90;;;;;;5012327;28;19925;-75
2022/09/20 04:00:58;;;;;;;;;;;14.00;99.90;;;;;;5012870;28;19932;-75
2022/09/20 04:03:26;;;;;;;;;;;14.00;99.90;;;;;;5012257;28;19910;-74
2022/09/20 04:06:21;;;;;;;;;;;14.00;99.90;;;;;;5012590;28;20417;-74
2022/09/20 04:08:49;;;;;;;;;;;13.90;99.90;;;;;;5028052;28;19909;-74
2022/09/20 04:11:22;;;;;;;;;;;13.80;99.90;;;;;;5010934;28;19910;-75
2022/09/20 04:13:55;;;;;;;;;;;13.80;99.90;;;;;;5012713;28;19909;-75
2022/09/20 04:16:33;;;;;;;;;;;13.80;99.90;;;;;;5012082;28;20267;-75
2022/09/20 04:19:22;;;;;;;;;;;13.70;99.90;;;;;;5012704;28;19935;-74
2022/09/20 04:21:55;;;;;;;;;;;13.70;99.90;;;;;;5014937;28;19914;-74
2022/09/20 04:24:27;;;;;;;;;;;13.60;99.90;;;;;;5015684;28;19910;-73
2022/09/20 04:27:01;;;;;;;;;;;13.60;99.90;;;;;;5015015;28;20358;-74
2022/09/20 04:29:27;;;;;;;;;;;13.50;99.90;;;;;;5015789;28;20413;-74
2022/09/20 04:32:09;;;;;;;;;;;13.50;99.90;;;;;;5016309;28;20012;-74
2022/09/20 04:37:28;;;;;;;;;;;13.40;99.90;;;;;;5015363;28;20322;-74
2022/09/20 04:40:14;;;;;;;;;;;13.30;99.90;;;;;;5016481;28;19913;-74
2022/09/20 04:42:55;;;;;;;;;;;13.30;99.90;;;;;;5015847;28;19909;-74
2022/09/20 04:45:29;;;;;;;;;;;13.20;99.90;;;;;;5036766;28;19928;-74
2022/09/20 04:48:12;;;;;;;;;;;13.20;99.90;;;;;;5055730;28;20312;-74
2022/09/20 04:50:52;;;;;;;;;;;13.10;99.90;;;;;;5055790;28;19923;-74
2022/09/20 04:53:27;;;;;;;;;;;13.10;99.90;;;;;;5055484;28;19996;-74
2022/09/20 04:55:55;;;;;;;;;;;13.00;99.90;;;;;;5056249;28;20239;-75
2022/09/20 04:58:31;;;;;;;;;;;13.00;99.90;;;;;;5056356;28;19999;-73
2022/09/20 05:01:22;;;;;;;;;;;12.90;99.90;;;;;;5055719;28;19920;-74
2022/09/20 05:03:47;;;;;;;;;;;12.90;99.90;;;;;;5055436;28;20381;-73
2022/09/20 05:06:25;;;;;;;;;;;12.80;99.90;;;;;;5055368;28;19909;-74
2022/09/20 05:09:23;;;;;;;;;;;12.70;99.90;;;;;;5054109;28;19916;-74
2022/09/20 05:11:51;;;;;;;;;;;12.70;99.90;;;;;;5043093;28;20370;-73
2022/09/20 05:14:35;;;;;;;;;;;12.60;99.90;;;;;;5055025;28;19920;-74
2022/09/20 05:17:11;;;;;;;;;;;12.60;99.90;;;;;;5055134;28;19983;-74
2022/09/20 05:19:47;;;;;;;;;;;12.50;99.90;;;;;;5054628;28;20244;-74
2022/09/20 05:22:21;;;;;;;;;;;12.50;99.90;;;;;;5055003;28;19916;-74
2022/09/20 05:25:05;;;;;;;;;;;12.40;99.90;;;;;;5054666;28;19909;-74
2022/09/20 05:27:53;;;;;;;;;;;12.40;99.90;;;;;;5054359;28;19917;-75
2022/09/20 05:30:38;;;;;;;;;;;12.30;99.90;;;;;;5054275;28;20313;-74
2022/09/20 05:33:22;;;;;;;;;;;12.30;99.90;;;;;;5054566;28;19916;-74
2022/09/20 05:35:57;;;;;;;;;;;12.30;99.90;;;;;;5054155;28;20449;-74
2022/09/20 05:38:33;;;;;;;;;;;12.30;99.90;;;;;;5054243;28;19916;-74
2022/09/20 05:41:13;;;;;;;;;;;12.30;99.90;;;;;;5055358;28;20364;-74
2022/09/20 05:43:48;;;;;;;;;;;12.20;99.90;;;;;;5053884;28;20397;-74
2022/09/20 05:46:17;;;;;;;;;;;12.30;99.90;;;;;;5054522;28;19966;-74
2022/09/20 05:48:57;;;;;;;;;;;12.20;99.90;;;;;;5054036;28;19967;-74
2022/09/20 05:51:33;;;;;;;;;;;12.20;99.90;;;;;;5053855;28;19913;-74
2022/09/20 05:54:17;;;;;;;;;;;12.20;99.90;;;;;;5054176;28;19909;-74
2022/09/20 05:56:42;;;;;;;;;;;12.20;99.90;;;;;;5053831;28;19917;-74
2022/09/20 05:59:11;;;;;;;;;;;12.20;99.90;;;;;;5054451;28;19908;-73
2022/09/20 06:01:52;;;;;;;;;;;12.20;99.90;;;;;;5053830;28;20077;-74
2022/09/20 06:04:40;;;;;;;;;;;12.20;99.90;;;;;;5054128;28;19995;-74
2022/09/20 06:07:12;;;;;;;;;;;12.10;99.90;;;;;;5050976;28;19915;-74
2022/09/20 06:09:47;;;;;;;;;;;12.10;99.90;;;;;;5053492;28;19914;-74
2022/09/20 06:12:18;;;;;;;;;;;12.10;99.90;;;;;;5054112;28;19909;-74
2022/09/20 06:15:10;;;;;;;;;;;12.10;99.90;;;;;;5053214;28;19944;-75
2022/09/20 06:17:39;;;;;;;;;;;12.00;99.90;;;;;;5053428;28;19969;-74
2022/09/20 06:20:25;;;;;;;;;;;12.00;99.90;;;;;;5053619;28;20354;-74
2022/09/20 06:22:56;;;;;;;;;;;12.00;99.90;;;;;;5049344;28;19913;-75
2022/09/20 06:25:41;;;;;;;;;;;12.00;99.90;;;;;;5053164;28;19908;-75
2022/09/20 06:28:12;;;;;;;;;;;12.00;99.90;;;;;;5053736;28;19944;-74
2022/09/20 06:30:46;;;;;;;;;;;12.00;99.90;;;;;;5053080;28;19912;-74
2022/09/20 06:33:11;;;;;;;;;;;12.00;99.90;;;;;;5051851;28;19909;-74
2022/09/20 06:35:57;;;;;;;;;;;12.00;99.90;;;;;;5052898;28;19920;-74
2022/09/20 06:41:28;;;;;;;;;;;12.00;99.90;;;;;;5053349;28;19916;-74
2022/09/20 06:43:57;;;;;;;;;;;12.00;99.90;;;;;;5052549;28;19915;-74
2022/09/20 06:46:23;;;;;;;;;;;12.10;99.90;;;;;;5053320;28;20426;-74
2022/09/20 06:48:50;;;;;;;;;;;12.10;99.90;;;;;;5052757;28;19913;-75
2022/09/20 06:51:15;;;;;;;;;;;12.10;99.90;;;;;;5053102;28;19909;-75
2022/09/20 06:53:41;;;;;;;;;;;12.20;99.90;;;;;;5052401;28;19909;-75
2022/09/20 06:56:14;;;;;;;;;;;12.30;99.90;;;;;;5052627;28;19917;-75
2022/09/20 06:58:40;;;;;;;;;;;12.40;99.90;;;;;;5052607;28;19909;-74
2022/09/20 07:01:05;;;;;;;;;;;12.50;99.90;;;;;;5068316;28;19915;-74
2022/09/20 07:03:31;;;;;;;;;;;12.60;99.90;;;;;;5052520;28;19909;-74
2022/09/20 07:05:59;;;;;;;;;;;12.70;99.90;;;;;;5052433;28;19909;-75
2022/09/20 07:08:25;;;;;;;;;;;12.80;99.90;;;;;;5051717;28;20369;-74
2022/09/20 07:10:51;;;;;;;;;;;13.00;99.90;;;;;;5052396;28;20000;-74
2022/09/20 07:13:18;;;;;;;;;;;13.10;99.90;;;;;;5051520;28;20425;-74
2022/09/20 07:15:43;;;;;;;;;;;13.20;99.90;;;;;;5050176;28;19923;-74
2022/09/20 07:18:09;;;;;;;;;;;13.30;99.90;;;;;;5052233;28;20003;-74
2022/09/20 07:20:34;;;;;;;;;;;13.40;99.90;;;;;;5050470;28;19913;-74
2022/09/20 07:23:00;;;;;;;;;;;13.50;99.90;;;;;;5052665;28;20406;-74
2022/09/20 07:25:26;;;;;;;;;;;13.60;99.90;;;;;;5052398;28;20312;-75
2022/09/20 07:27:51;;;;;;;;;;;13.80;99.90;;;;;;5052293;28;19909;-75
2022/09/20 07:30:18;;;;;;;;;;;14.00;99.90;;;;;;5052282;28;19912;-75
2022/09/20 07:32:44;;;;;;;;;;;14.20;99.90;;;;;;5052059;28;19934;-75
2022/09/20 07:35:09;;;;;;;;;;;14.30;99.90;;;;;;5052403;28;20023;-75
2022/09/20 07:37:35;;;;;;;;;;;14.40;99.90;;;;;;5051726;28;19920;-74
2022/09/20 07:40:02;;;;;;;;;;;14.50;99.90;;;;;;5052628;28;20300;-74
2022/09/20 07:42:28;;;;;;;;;;;14.60;99.90;;;;;;5052231;28;19920;-75
2022/09/20 07:44:54;;;;;;;;;;;14.50;99.90;;;;;;5052428;28;19966;-74
2022/09/20 07:47:24;;;;;;;;;;;14.60;99.90;;;;;;5052511;28;20300;-74
2022/09/20 07:49:50;;;;;;;;;;;14.60;99.90;;;;;;5051906;28;19979;-74
2022/09/20 07:52:15;;;;;;;;;;;14.70;99.90;;;;;;5052398;28;20361;-74
2022/09/20 07:54:41;;;;;;;;;;;14.70;99.90;;;;;;5052579;28;19909;-75
2022/09/20 07:57:07;;;;;;;;;;;14.80;99.90;;;;;;5071886;28;19970;-74
2022/09/20 07:59:32;;;;;;;;;;;14.90;99.90;;;;;;5056018;28;19944;-74
2022/09/20 08:01:59;;;;;;;;;;;14.90;99.90;;;;;;5056218;28;19999;-74
2022/09/20 08:04:25;;;;;;;;;;;15.10;99.90;;;;;;5056715;28;19909;-74
2022/09/20 08:06:50;;;;;;;;;;;15.20;99.90;;;;;;5070989;28;19913;-73
2022/09/20 08:09:16;;;;;;;;;;;15.30;99.90;;;;;;5056347;28;19909;-74
2022/09/20 08:11:42;;;;;;;;;;;15.40;99.90;;;;;;5055905;28;19932;-74
2022/09/20 08:14:17;;;;;;;;;;;15.50;99.90;;;;;;5056504;28;19913;-74
2022/09/20 08:16:44;;;;;;;;;;;15.60;99.90;;;;;;5055706;28;20255;-74
2022/09/20 08:19:19;;;;;;;;;;;15.70;99.90;;;;;;5056163;28;19962;-74
2022/09/20 08:21:45;;;;;;;;;;;15.80;99.90;;;;;;5055604;28;19909;-74
2022/09/20 08:24:11;;;;;;;;;;;15.90;99.90;;;;;;5055930;28;19909;-74
2022/09/20 08:26:37;;;;;;;;;;;16.00;99.90;;;;;;5055428;28;19915;-75
2022/09/20 08:29:04;;;;;;;;;;;16.10;99.90;;;;;;5056133;28;19909;-75
2022/09/20 08:31:33;;;;;;;;;;;16.20;99.90;;;;;;5055742;28;19915;-75
2022/09/20 08:34:02;;;;;;;;;;;16.20;99.90;;;;;;5056062;28;19916;-74
2022/09/20 08:36:29;;;;;;;;;;;16.30;99.90;;;;;;5055747;28;19927;-74
2022/09/20 08:38:54;;;;;;;;;;;16.40;99.90;;;;;;5055228;28;20354;-74
2022/09/20 08:41:32;;;;;;;;;;;16.40;99.90;;;;;;5055689;28;19916;-74
2022/09/20 08:44:06;;;;;;;;;;;16.40;99.90;;;;;;5056095;28;19956;-74
2022/09/20 08:46:34;;;;;;;;;;;16.50;99.90;;;;;;5054241;28;20370;-74
2022/09/20 08:49:02;;;;;;;;;;;16.50;99.90;;;;;;5054383;28;20366;-74
2022/09/20 08:51:29;;;;;;;;;;;16.60;99.90;;;;;;5055342;28;20290;-74
2022/09/20 08:53:55;;;;;;;;;;;16.60;99.90;;;;;;5054957;28;19909;-74
2022/09/20 08:56:21;;;;;;;;;;;16.70;99.90;;;;;;5055555;28;19944;-74
2022/09/20 08:58:47;;;;;;;;;;;16.80;99.90;;;;;;5054456;28;19947;-74
2022/09/20 09:01:18;;;;;;;;;;;16.90;99.90;;;;;;5055354;28;19909;-73
2022/09/20 09:03:44;;;;;;;;;;;16.80;99.90;;;;;;5054509;28;20378;-74
2022/09/20 09:06:13;;;;;;;;;;;16.90;99.90;;;;;;5054522;28;19956;-73
2022/09/20 09:08:39;;;;;;;;;;;16.90;99.90;;;;;;5054711;28;20373;-73
2022/09/20 09:11:08;;;;;;;;;;;17.00;99.90;;;;;;5055423;28;19909;-74
2022/09/20 09:13:53;;;;;;;;;;;17.00;99.90;;;;;;5054798;28;19954;-74
2022/09/20 09:16:22;;;;;;;;;;;17.00;99.90;;;;;;5055018;28;19917;-74
2022/09/20 09:18:51;;;;;;;;;;;17.00;99.90;;;;;;5054398;28;19920;-74
2022/09/20 09:21:22;;;;;;;;;;;17.00;99.90;;;;;;5054893;28;19912;-74
2022/09/20 09:24:11;;;;;;;;;;;17.10;99.90;;;;;;5054480;28;19920;-74
2022/09/20 09:26:38;;;;;;;;;;;17.10;99.90;;;;;;5054441;28;20425;-74
2022/09/20 09:29:13;;;;;;;;;;;17.20;99.90;;;;;;5054703;28;19944;-74
2022/09/20 09:31:39;;;;;;;;;;;17.20;99.90;;;;;;5052988;28;20328;-74
2022/09/20 09:34:20;;;;;;;;;;;17.20;99.90;;;;;;5054713;28;20008;-75
2022/09/20 09:36:46;;;;;;;;;;;17.30;99.90;;;;;;5054274;28;20387;-74
2022/09/20 09:39:15;;;;;;;;;;;17.30;99.90;;;;;;5054959;28;20000;-74
2022/09/20 09:41:42;;;;;;;;;;;17.30;99.90;;;;;;5054087;28;19909;-75
2022/09/20 09:44:24;;;;;;;;;;;17.30;99.90;;;;;;5054340;28;19965;-74
2022/09/20 09:46:50;;;;;;;;;;;17.40;99.90;;;;;;5086283;28;20365;-74
2022/09/20 09:49:17;;;;;;;;;;;17.50;99.90;;;;;;5053206;28;19913;-74
2022/09/20 09:52:03;;;;;;;;;;;17.50;99.90;;;;;;5053824;28;20059;-74
2022/09/20 09:54:30;;;;;;;;;;;17.50;99.90;;;;;;5050060;28;19936;-75
2022/09/20 09:57:15;;;;;;;;;;;17.60;99.90;;;;;;5053729;28;19924;-74
2022/09/20 09:59:49;;;;;;;;;;;17.70;99.90;;;;;;5053276;28;19913;-74
2022/09/20 10:02:15;;;;;;;;;;;17.70;99.90;;;;;;5054261;28;19909;-74
2022/09/20 10:04:53;;;;;;;;;;;17.70;99.90;;;;;;5053587;28;19909;-74
2022/09/20 10:07:27;;;;;;;;;;;17.80;99.90;;;;;;5054657;28;19996;-74
2022/09/20 10:10:08;;;;;;;;;;;17.80;99.90;;;;;;5053571;28;19978;-74
2022/09/20 10:12:36;;;;;;;;;;;17.90;99.90;;;;;;5054373;28;19962;-74
2022/09/20 10:15:16;;;;;;;;;;;18.00;99.90;;;;;;5053654;28;20397;-74
2022/09/20 10:17:42;;;;;;;;;;;18.00;99.90;;;;;;5053034;28;19924;-73
2022/09/20 10:20:50;;;;;;;;;;;18.00;99.90;;;;;;5053371;28;19913;-74
2022/09/20 10:23:21;;;;;;;;;;;18.00;99.90;;;;;;5031633;28;20012;-74
2022/09/20 10:25:48;;;;;;;;;;;18.10;99.90;;;;;;5030814;28;20446;-74
2022/09/20 10:28:20;;;;;;;;;;;18.10;99.90;;;;;;5031555;28;19909;-74
2022/09/20 10:30:57;;;;;;;;;;;18.10;99.90;;;;;;5030829;28;19909;-74
2022/09/20 10:33:29;;;;;;;;;;;18.10;99.90;;;;;;5031461;28;20263;-74
2022/09/20 10:35:57;;;;;;;;;;;18.10;99.90;;;;;;5030667;28;19917;-75
2022/09/20 10:38:26;;;;;;;;;;;18.20;99.90;;;;;;5030850;28;20072;-75
2022/09/20 10:43:36;;;;;;;;;;;18.20;99.90;;;;;;5031051;28;19916;-75
2022/09/20 10:46:07;;;;;;;;;;;18.20;99.90;;;;;;5030474;28;19921;-75
2022/09/20 10:48:50;;;;;;;;;;;18.30;99.90;;;;;;5030734;28;19927;-75
2022/09/20 10:51:34;;;;;;;;;;;18.30;99.90;;;;;;5031160;28;19910;-75
2022/09/20 10:54:19;;;;;;;;;;;18.30;99.90;;;;;;5041834;28;19909;-75
2022/09/20 10:56:49;;;;;;;;;;;18.30;99.90;;;;;;5052615;28;20015;-75
2022/09/20 10:59:31;;;;;;;;;;;18.30;99.90;;;;;;5053182;28;19909;-74
2022/09/20 11:02:19;;;;;;;;;;;18.30;99.90;;;;;;5052598;28;19913;-75
2022/09/20 11:04:55;;;;;;;;;;;18.30;99.90;;;;;;5049406;28;20345;-75
2022/09/20 11:07:21;;;;;;;;;;;18.40;99.90;;;;;;5052961;28;20011;-75
2022/09/20 11:10:09;;;;;;;;;;;18.50;99.90;;;;;;5052533;28;19999;-75
2022/09/20 11:12:41;;;;;;;;;;;18.60;99.90;;;;;;5053666;28;19920;-76
2022/09/20 11:15:20;;;;;;;;;;;18.80;99.90;;;;;;5051526;28;19952;-76
2022/09/20 11:17:52;;;;;;;;;;;18.90;99.90;;;;;;5052190;28;19917;-75
2022/09/20 11:20:17;;;;;;;;;;;19.00;99.90;;;;;;5052855;28;19950;-75
2022/09/20 11:22:46;;;;;;;;;;;19.10;99.90;;;;;;5052427;28;20308;-75
2022/09/20 11:25:20;;;;;;;;;;;19.10;99.90;;;;;;5052829;28;20337;-75
2022/09/20 11:28:00;;;;;;;;;;;19.00;99.90;;;;;;5052208;28;20354;-75
2022/09/20 11:30:28;;;;;;;;;;;19.00;99.90;;;;;;5052554;28;19908;-75
2022/09/20 11:33:17;;;;;;;;;;;18.90;99.90;;;;;;5052152;28;20354;-75
2022/09/20 11:35:46;;;;;;;;;;;18.90;99.90;;;;;;5052654;28;20317;-75
2022/09/20 11:38:15;;;;;;;;;;;18.90;99.90;;;;;;5052747;28;20007;-75
2022/09/20 11:40:45;;;;;;;;;;;18.80;99.90;;;;;;5053034;28;20408;-76
2022/09/20 11:43:12;;;;;;;;;;;18.80;99.90;;;;;;5052576;28;20401;-74
2022/09/20 11:45:39;;;;;;;;;;;18.80;99.90;;;;;;5052416;28;19931;-74
2022/09/20 11:48:27;;;;;;;;;;;18.80;99.90;;;;;;5052073;28;20027;-74
2022/09/20 11:51:16;;;;;;;;;;;18.80;99.90;;;;;;5052025;28;19916;-73
2022/09/20 11:53:45;;;;;;;;;;;18.70;99.90;;;;;;5049260;28;20321;-75
2022/09/20 11:56:13;;;;;;;;;;;18.70;99.90;;;;;;5052567;28;19921;-75
2022/09/20 11:58:49;;;;;;;;;;;18.80;99.90;;;;;;5052395;28;19923;-75
2022/09/20 12:01:16;;;;;;;;;;;18.80;99.90;;;;;;5052317;28;19916;-74
2022/09/20 12:03:43;;;;;;;;;;;18.80;99.90;;;;;;5052525;28;19909;-75
2022/09/20 12:06:28;;;;;;;;;;;18.90;99.90;;;;;;5052046;28;19962;-75
2022/09/20 12:08:56;;;;;;;;;;;18.80;99.90;;;;;;5051868;28;19916;-75
2022/09/20 12:11:29;;;;;;;;;;;18.80;99.90;;;;;;5052617;28;19954;-75
2022/09/20 12:14:04;;;;;;;;;;;18.80;99.90;;;;;;5051592;28;19913;-75
2022/09/20 12:16:46;;;;;;;;;;;18.90;99.90;;;;;;5052359;28;19923;-75
2022/09/20 12:19:21;;;;;;;;;;;18.80;99.90;;;;;;5052090;28;19909;-75
2022/09/20 12:21:58;;;;;;;;;;;18.80;99.90;;;;;;5051941;28;19909;-74
2022/09/20 12:24:28;;;;;;;;;;;18.80;99.90;;;;;;5052065;28;19932;-75
2022/09/20 12:26:58;;;;;;;;;;;18.80;99.90;;;;;;5051527;28;19913;-74
2022/09/20 12:29:23;;;;;;;;;;;18.80;99.90;;;;;;5050816;28;20281;-75
2022/09/20 12:31:50;;;;;;;;;;;18.80;99.90;;;;;;5050207;28;19908;-74
2022/09/20 12:34:16;;;;;;;;;;;18.70;99.90;;;;;;5052122;28;19915;-75
2022/09/20 12:37:04;;;;;;;;;;;18.70;99.90;;;;;;5052253;28;20011;-75
2022/09/20 12:39:37;;;;;;;;;;;18.70;99.90;;;;;;5052077;28;20222;-75
2022/09/20 12:42:27;;;;;;;;;;;18.80;99.90;;;;;;5052796;28;19919;-74
2022/09/20 12:44:58;;;;;;;;;;;18.80;99.90;;;;;;5052251;28;19921;-75
2022/09/20 12:47:26;;;;;;;;;;;18.90;99.90;;;;;;5055681;28;19913;-75
2022/09/20 12:52:49;;;;;;;;;;;19.10;99.90;;;;;;5055659;28;19916;-74
2022/09/20 12:55:37;;;;;;;;;;;19.10;99.90;;;;;;5055624;28;19909;-75
2022/09/20 12:58:05;;;;;;;;;;;19.10;99.90;;;;;;5054562;28;19977;-76
2022/09/20 13:00:47;;;;;;;;;;;19.20;99.90;;;;;;5054496;28;20235;-75
2022/09/20 13:03:20;;;;;;;;;;;19.10;99.90;;;;;;5054862;28;20324;-76
2022/09/20 13:05:47;;;;;;;;;;;19.20;99.90;;;;;;5054062;28;19909;-75
2022/09/20 13:08:27;;;;;;;;;;;19.40;99.90;;;;;;5054935;28;20373;-76
2022/09/20 13:10:59;;;;;;;;;;;19.50;99.90;;;;;;5054722;28;19916;-75
2022/09/20 13:13:27;;;;;;;;;;;19.60;99.90;;;;;;5055469;28;19970;-76
2022/09/20 13:15:54;;;;;;;;;;;19.60;99.90;;;;;;5054626;28;20034;-75
2022/09/20 13:18:21;;;;;;;;;;;19.70;99.90;;;;;;5054861;28;19913;-76
2022/09/20 13:20:46;;;;;;;;;;;19.70;99.90;;;;;;5055160;28;19915;-76
2022/09/20 13:23:21;;;;;;;;;;;19.80;99.90;;;;;;5054234;28;19995;-75
2022/09/20 13:25:47;;;;;;;;;;;19.90;99.90;;;;;;5054919;28;19909;-75
2022/09/20 13:28:17;;;;;;;;;;;20.00;99.90;;;;;;5086443;28;19916;-75
2022/09/20 13:30:42;;;;;;;;;;;20.00;99.90;;;;;;5054864;28;19913;-74
2022/09/20 13:33:21;;;;;;;;;;;20.00;99.90;;;;;;5053993;28;19915;-74
2022/09/20 13:35:48;;;;;;;;;;;20.00;99.90;;;;;;5054273;28;20389;-74
2022/09/20 13:38:21;;;;;;;;;;;20.10;99.90;;;;;;5054227;28;19955;-75
2022/09/20 13:40:47;;;;;;;;;;;20.10;99.90;;;;;;5054595;28;19909;-75
2022/09/20 13:43:22;;;;;;;;;;;20.10;99.90;;;;;;5053463;28;19978;-75
2022/09/20 13:45:51;;;;;;;;;;;20.10;99.90;;;;;;5054157;28;19928;-74
2022/09/20 13:48:16;;;;;;;;;;;20.10;99.90;;;;;;5054435;28;19924;-75
2022/09/20 13:50:42;;;;;;;;;;;20.10;99.90;;;;;;5054411;28;19909;-75
2022/09/20 13:53:15;;;;;;;;;;;20.00;99.90;;;;;;5053234;28;19920;-75
2022/09/20 13:55:42;;;;;;;;;;;19.90;99.90;;;;;;5052866;28;20362;-75
2022/09/20 13:58:23;;;;;;;;;;;20.00;99.90;;;;;;5053707;28;19913;-75
2022/09/20 14:00:58;;;;;;;;;;;20.10;99.90;;;;;;5053935;28;19909;-75
2022/09/20 14:03:25;;;;;;;;;;;20.10;99.90;;;;;;5053916;28;19955;-75
2022/09/20 14:05:55;;;;;;;;;;;20.30;99.90;;;;;;5053938;28;19909;-75
2022/09/20 14:08:20;;;;;;;;;;;20.30;99.90;;;;;;5054037;28;19991;-75
2022/09/20 14:10:46;;;;;;;;;;;20.30;99.90;;;;;;5053833;28;19994;-76
2022/09/20 14:13:15;;;;;;;;;;;20.30;99.90;;;;;;5053460;28;19909;-74
2022/09/20 14:15:42;;;;;;;;;;;20.30;99.90;;;;;;5052516;28;19955;-75
2022/09/20 14:18:12;;;;;;;;;;;20.30;99.90;;;;;;5053283;28;19967;-75
2022/09/20 14:20:40;;;;;;;;;;;20.10;99.90;;;;;;5064102;28;19913;-76
2022/09/20 14:23:15;;;;;;;;;;;20.00;99.90;;;;;;5073182;28;19912;-76
2022/09/20 14:25:40;;;;;;;;;;;20.00;99.90;;;;;;5072714;28;20262;-74
2022/09/20 14:28:16;;;;;;;;;;;20.20;99.90;;;;;;5073175;28;19939;-75
2022/09/20 14:30:42;;;;;;;;;;;20.30;99.90;;;;;;5073463;28;19908;-75
2022/09/20 14:33:13;;;;;;;;;;;20.30;99.90;;;;;;5072942;28;19919;-75
2022/09/20 14:35:44;;;;;;;;;;;20.30;99.90;;;;;;5073481;28;19934;-75
2022/09/20 14:38:12;;;;;;;;;;;20.50;99.90;;;;;;5072974;28;19912;-75
2022/09/20 14:40:43;;;;;;;;;;;20.50;99.90;;;;;;5073085;28;19946;-75
2022/09/20 14:43:27;;;;;;;;;;;20.50;99.90;;;;;;5072552;28;19944;-76
2022/09/20 14:45:54;;;;;;;;;;;20.40;99.90;;;;;;5072920;28;19920;-75
2022/09/20 14:48:20;;;;;;;;;;;20.50;99.90;;;;;;5073614;28;19954;-75
2022/09/20 14:51:05;;;;;;;;;;;20.40;99.90;;;;;;5073128;28;19909;-75
2022/09/20 14:53:31;;;;;;;;;;;20.30;99.90;;;;;;5072798;28;19950;-75
2022/09/20 14:56:03;;;;;;;;;;;20.20;99.90;;;;;;5072431;28;20372;-74
2022/09/20 14:58:29;;;;;;;;;;;20.30;99.90;;;;;;5073397;28;20042;-74